createdAt,value
2018-09-29T00:00:23.306Z,34.33
2018-09-29T00:00:54.407Z,33.75
2018-09-29T00:01:26.423Z,35.80
2018-09-29T00:01:57.537Z,35.45
2018-09-29T00:02:28.677Z,37.73
2018-09-29T00:02:59.789Z,35.98
2018-09-29T00:03:30.923Z,32.40
2018-09-29T00:04:02.022Z,34.48
2018-09-29T00:04:33.182Z,32.10
2018-09-29T00:05:04.275Z,30.97
2018-09-29T00:05:35.412Z,34.43
2018-09-29T00:06:06.520Z,33.85
2018-09-29T00:06:37.633Z,34.73
2018-09-29T00:07:08.799Z,33.55
2018-09-29T00:07:39.914Z,32.85
2018-09-29T00:08:11.046Z,35.08
2018-09-29T00:08:42.151Z,34.67
2018-09-29T00:09:13.290Z,33.55
2018-09-29T00:09:44.394Z,33.33
2018-09-29T00:10:15.539Z,32.33
2018-09-29T00:10:46.674Z,34.50
2018-09-29T00:11:17.794Z,33.67
2018-09-29T00:11:48.927Z,32.28
2018-09-29T00:12:20.058Z,36.68
2018-09-29T00:12:51.165Z,33.88
2018-09-29T00:13:22.271Z,39.00
2018-09-29T00:13:53.406Z,33.18
2018-09-29T00:14:24.540Z,31.73
2018-09-29T00:14:55.669Z,32.93
2018-09-29T00:15:26.776Z,33.13
2018-09-29T00:15:57.938Z,32.40
2018-09-29T00:16:29.084Z,34.03
2018-09-29T00:17:00.199Z,32.60
2018-09-29T00:17:31.327Z,32.98
2018-09-29T00:18:02.437Z,35.17
2018-09-29T00:18:33.537Z,34.25
2018-09-29T00:19:04.661Z,35.35
2018-09-29T00:19:35.794Z,32.05
2018-09-29T00:20:06.935Z,32.30
2018-09-29T00:20:38.082Z,32.58
2018-09-29T00:21:09.187Z,34.83
2018-09-29T00:21:40.298Z,36.55
2018-09-29T00:22:11.419Z,36.95
2018-09-29T00:22:42.531Z,32.85
2018-09-29T00:23:13.622Z,33.00
2018-09-29T00:23:44.756Z,33.33
2018-09-29T00:24:15.860Z,33.88
2018-09-29T00:24:47.004Z,33.23
2018-09-29T00:25:18.152Z,33.90
2018-09-29T00:25:49.255Z,32.65
2018-09-29T00:26:20.354Z,40.20
2018-09-29T00:26:51.446Z,30.77
2018-09-29T00:27:22.564Z,30.88
2018-09-29T00:27:53.722Z,33.23
2018-09-29T00:28:24.847Z,34.92
2018-09-29T00:28:55.950Z,30.20
2018-09-29T00:29:27.054Z,32.33
2018-09-29T00:29:58.174Z,30.60
2018-09-29T00:30:29.288Z,33.53
2018-09-29T00:31:00.403Z,33.65
2018-09-29T00:31:31.501Z,34.27
2018-09-29T00:32:02.610Z,36.60
2018-09-29T00:32:33.724Z,34.20
2018-09-29T00:33:04.824Z,34.67
2018-09-29T00:33:35.926Z,32.17
2018-09-29T00:34:07.100Z,32.85
2018-09-29T00:34:38.207Z,33.80
2018-09-29T00:35:09.303Z,34.20
2018-09-29T00:35:40.413Z,30.90
2018-09-29T00:36:11.553Z,32.30
2018-09-29T00:36:42.707Z,34.58
2018-09-29T00:37:13.807Z,32.13
2018-09-29T00:37:44.959Z,34.00
2018-09-29T00:38:16.076Z,34.10
2018-09-29T00:38:47.177Z,32.60
2018-09-29T00:39:18.280Z,40.15
2018-09-29T00:39:49.417Z,31.20
2018-09-29T00:40:20.554Z,34.13
2018-09-29T00:40:51.653Z,34.08
2018-09-29T00:41:22.750Z,30.17
2018-09-29T00:41:53.858Z,32.93
2018-09-29T00:42:24.965Z,31.30
2018-09-29T00:42:56.070Z,34.03
2018-09-29T00:43:27.192Z,31.35
2018-09-29T00:43:58.325Z,31.60
2018-09-29T00:44:29.428Z,33.92
2018-09-29T00:45:00.615Z,32.03
2018-09-29T00:45:31.722Z,39.70
2018-09-29T00:46:02.822Z,30.95
2018-09-29T00:46:33.925Z,35.38
2018-09-29T00:47:05.050Z,36.05
2018-09-29T00:47:36.188Z,33.92
2018-09-29T00:48:07.291Z,29.90
2018-09-29T00:48:38.390Z,30.62
2018-09-29T00:49:09.490Z,32.40
2018-09-29T00:49:40.585Z,32.20
2018-09-29T00:50:11.724Z,28.67
2018-09-29T00:50:42.839Z,30.05
2018-09-29T00:51:13.937Z,28.12
2018-09-29T00:51:45.070Z,29.12
2018-09-29T00:52:16.178Z,28.70
2018-09-29T00:52:47.313Z,31.73
2018-09-29T00:53:18.413Z,29.85
2018-09-29T00:53:49.573Z,29.70
2018-09-29T00:54:20.729Z,26.17
2018-09-29T00:54:51.876Z,29.82
2018-09-29T00:55:23.037Z,27.95
2018-09-29T00:55:54.207Z,27.82
2018-09-29T00:56:25.301Z,26.15
2018-09-29T00:56:56.418Z,30.52
2018-09-29T00:57:27.562Z,30.00
2018-09-29T00:57:58.654Z,27.15
2018-09-29T00:58:29.753Z,32.10
2018-09-29T00:59:00.859Z,27.20
2018-09-29T00:59:31.999Z,28.50
2018-09-29T01:00:03.136Z,32.58
2018-09-29T01:00:34.287Z,31.87
2018-09-29T01:01:05.417Z,30.57
2018-09-29T01:01:36.532Z,28.73
2018-09-29T01:02:07.651Z,30.12
2018-09-29T01:02:38.769Z,32.25
2018-09-29T01:03:09.877Z,26.55
2018-09-29T01:03:41.006Z,29.32
2018-09-29T01:04:12.115Z,25.50
2018-09-29T01:04:43.238Z,36.28
2018-09-29T01:05:14.371Z,30.45
2018-09-29T01:05:45.559Z,28.60
2018-09-29T01:06:16.677Z,27.22
2018-09-29T01:06:47.791Z,27.50
2018-09-29T01:07:18.889Z,29.07
2018-09-29T01:07:50.014Z,29.55
2018-09-29T01:08:21.120Z,28.95
2018-09-29T01:08:52.224Z,28.17
2018-09-29T01:09:23.336Z,29.98
2018-09-29T01:09:54.499Z,26.45
2018-09-29T01:10:25.626Z,28.30
2018-09-29T01:10:56.744Z,30.97
2018-09-29T01:11:27.854Z,29.35
2018-09-29T01:11:58.963Z,30.40
2018-09-29T01:12:30.095Z,31.02
2018-09-29T01:13:01.191Z,30.52
2018-09-29T01:13:32.296Z,28.92
2018-09-29T01:14:03.404Z,27.35
2018-09-29T01:14:34.540Z,31.70
2018-09-29T01:15:05.684Z,30.60
2018-09-29T01:15:36.806Z,34.45
2018-09-29T01:16:07.941Z,31.90
2018-09-29T01:16:39.080Z,29.55
2018-09-29T01:17:10.230Z,31.57
2018-09-29T01:17:41.391Z,34.27
2018-09-29T01:18:12.530Z,30.17
2018-09-29T01:18:43.641Z,29.65
2018-09-29T01:19:14.771Z,33.20
2018-09-29T01:19:45.945Z,34.85
2018-09-29T01:20:17.051Z,31.95
2018-09-29T01:20:48.152Z,33.73
2018-09-29T01:21:19.268Z,32.08
2018-09-29T01:21:50.419Z,33.75
2018-09-29T01:22:21.513Z,34.10
2018-09-29T01:22:52.608Z,32.63
2018-09-29T01:23:23.768Z,32.88
2018-09-29T01:23:54.899Z,29.75
2018-09-29T01:24:26.001Z,31.80
2018-09-29T01:24:57.113Z,33.15
2018-09-29T01:25:28.293Z,30.60
2018-09-29T01:25:59.430Z,32.17
2018-09-29T01:26:30.571Z,29.48
2018-09-29T01:27:01.695Z,32.03
2018-09-29T01:27:32.815Z,30.48
2018-09-29T01:28:03.961Z,31.65
2018-09-29T01:28:35.065Z,29.20
2018-09-29T01:29:06.196Z,32.10
2018-09-29T01:29:37.320Z,28.27
2018-09-29T01:30:08.413Z,26.90
2018-09-29T01:30:39.563Z,28.10
2018-09-29T01:31:10.663Z,31.05
2018-09-29T01:31:41.813Z,30.05
2018-09-29T01:32:12.961Z,30.23
2018-09-29T01:32:44.099Z,30.45
2018-09-29T01:33:15.207Z,28.87
2018-09-29T01:33:46.302Z,32.10
2018-09-29T01:34:17.443Z,31.25
2018-09-29T01:34:48.568Z,32.23
2018-09-29T01:35:19.712Z,26.90
2018-09-29T01:35:50.854Z,25.80
2018-09-29T01:36:21.959Z,27.75
2018-09-29T01:36:53.059Z,25.27
2018-09-29T01:37:24.160Z,24.72
2018-09-29T01:37:55.302Z,31.40
2018-09-29T01:38:26.417Z,27.48
2018-09-29T01:38:57.545Z,27.75
2018-09-29T01:39:28.650Z,29.12
2018-09-29T01:39:59.751Z,26.50
2018-09-29T01:40:30.886Z,27.30
2018-09-29T01:41:02.021Z,29.18
2018-09-29T01:41:33.113Z,25.27
2018-09-29T01:42:04.277Z,28.83
2018-09-29T01:42:35.414Z,26.10
2018-09-29T01:43:06.588Z,30.45
2018-09-29T01:43:37.684Z,27.77
2018-09-29T01:44:08.789Z,27.73
2018-09-29T01:44:39.913Z,28.02
2018-09-29T01:45:11.043Z,26.37
2018-09-29T01:45:42.151Z,27.95
2018-09-29T01:46:13.257Z,26.20
2018-09-29T01:46:44.365Z,28.17
2018-09-29T01:47:15.512Z,25.57
2018-09-29T01:47:46.639Z,28.98
2018-09-29T01:48:17.805Z,26.80
2018-09-29T01:48:48.942Z,25.68
2018-09-29T01:49:20.058Z,26.50
2018-09-29T01:49:51.155Z,27.48
2018-09-29T01:50:22.261Z,29.65
2018-09-29T01:50:53.362Z,30.25
2018-09-29T01:51:24.468Z,26.87
2018-09-29T01:51:55.606Z,29.82
2018-09-29T01:52:26.710Z,26.65
2018-09-29T01:52:57.806Z,27.10
2018-09-29T01:53:28.922Z,28.67
2018-09-29T01:54:00.053Z,24.30
2018-09-29T01:54:31.166Z,25.12
2018-09-29T01:55:02.263Z,27.32
2018-09-29T01:55:33.372Z,25.12
2018-09-29T01:56:04.473Z,24.43
2018-09-29T01:56:35.653Z,24.87
2018-09-29T01:57:06.759Z,24.63
2018-09-29T01:57:37.930Z,24.92
2018-09-29T01:58:09.046Z,26.60
2018-09-29T01:58:40.171Z,27.87
2018-09-29T01:59:11.313Z,24.43
2018-09-29T01:59:42.415Z,25.02
2018-09-29T02:00:13.538Z,27.45
2018-09-29T02:00:44.697Z,27.48
2018-09-29T02:01:15.813Z,27.07
2018-09-29T02:01:46.943Z,27.80
2018-09-29T02:02:18.088Z,27.22
2018-09-29T02:02:49.937Z,26.40
2018-09-29T02:03:21.067Z,27.65
2018-09-29T02:03:52.199Z,25.82
2018-09-29T02:04:23.305Z,25.70
2018-09-29T02:04:54.426Z,26.73
2018-09-29T02:05:25.530Z,24.90
2018-09-29T02:05:56.633Z,25.17
2018-09-29T02:06:27.731Z,27.95
2018-09-29T02:06:58.883Z,26.68
2018-09-29T02:07:30.034Z,27.67
2018-09-29T02:08:01.325Z,30.45
2018-09-29T02:08:32.396Z,28.70
2018-09-29T02:09:03.502Z,29.60
2018-09-29T02:09:34.634Z,27.70
2018-09-29T02:10:05.738Z,27.02
2018-09-29T02:10:36.868Z,28.40
2018-09-29T02:11:07.972Z,30.55
2018-09-29T02:11:39.118Z,28.12
2018-09-29T02:12:10.250Z,27.02
2018-09-29T02:12:41.430Z,24.18
2018-09-29T02:13:12.547Z,27.50
2018-09-29T02:13:43.748Z,31.02
2018-09-29T02:14:14.856Z,30.15
2018-09-29T02:14:45.949Z,30.02
2018-09-29T02:15:17.079Z,26.60
2018-09-29T02:15:48.218Z,31.33
2018-09-29T02:16:19.395Z,30.37
2018-09-29T02:16:50.542Z,27.70
2018-09-29T02:17:21.758Z,27.93
2018-09-29T02:17:52.890Z,30.62
2018-09-29T02:18:24.067Z,30.40
2018-09-29T02:18:55.169Z,29.02
2018-09-29T02:19:26.294Z,29.25
2018-09-29T02:19:57.438Z,30.02
2018-09-29T02:20:28.562Z,28.98
2018-09-29T02:20:59.681Z,28.60
2018-09-29T02:21:30.795Z,27.42
2018-09-29T02:22:01.898Z,30.62
2018-09-29T02:22:33.002Z,29.27
2018-09-29T02:23:04.139Z,26.23
2018-09-29T02:23:35.291Z,29.32
2018-09-29T02:24:06.404Z,27.85
2018-09-29T02:24:37.523Z,24.43
2018-09-29T02:25:08.637Z,24.63
2018-09-29T02:25:39.769Z,23.02
2018-09-29T02:26:10.878Z,26.97
2018-09-29T02:26:41.973Z,25.70
2018-09-29T02:27:13.116Z,22.55
2018-09-29T02:27:44.275Z,23.18
2018-09-29T02:28:15.390Z,25.40
2018-09-29T02:28:46.548Z,24.65
2018-09-29T02:29:17.622Z,23.30
2018-09-29T02:29:48.722Z,23.32
2018-09-29T02:30:19.835Z,22.75
2018-09-29T02:30:51.013Z,23.95
2018-09-29T02:31:22.110Z,25.57
2018-09-29T02:31:53.215Z,23.75
2018-09-29T02:32:24.894Z,25.25
2018-09-29T02:32:55.994Z,21.00
2018-09-29T02:33:27.113Z,22.62
2018-09-29T02:33:58.229Z,24.05
2018-09-29T02:34:29.342Z,27.90
2018-09-29T02:35:00.497Z,24.90
2018-09-29T02:35:31.603Z,26.17
2018-09-29T02:36:02.746Z,23.42
2018-09-29T02:36:33.844Z,22.80
2018-09-29T02:37:04.947Z,23.83
2018-09-29T02:37:36.085Z,20.15
2018-09-29T02:38:07.211Z,23.67
2018-09-29T02:38:38.327Z,23.07
2018-09-29T02:39:09.430Z,25.17
2018-09-29T02:39:40.584Z,25.27
2018-09-29T02:40:11.691Z,27.35
2018-09-29T02:40:42.804Z,25.05
2018-09-29T02:41:13.898Z,27.37
2018-09-29T02:41:45.048Z,25.45
2018-09-29T02:42:16.174Z,23.22
2018-09-29T02:42:47.305Z,23.80
2018-09-29T02:43:18.411Z,24.10
2018-09-29T02:43:49.540Z,23.25
2018-09-29T02:44:20.665Z,22.65
2018-09-29T02:44:51.811Z,23.18
2018-09-29T02:45:22.954Z,23.52
2018-09-29T02:45:54.082Z,24.60
2018-09-29T02:46:25.189Z,23.02
2018-09-29T02:46:56.291Z,21.27
2018-09-29T02:47:27.437Z,19.02
2018-09-29T02:47:58.586Z,20.97
2018-09-29T02:48:29.671Z,21.23
2018-09-29T02:49:00.829Z,21.80
2018-09-29T02:49:31.953Z,20.27
2018-09-29T02:50:03.063Z,20.90
2018-09-29T02:50:34.167Z,24.00
2018-09-29T02:51:05.308Z,20.60
2018-09-29T02:51:36.410Z,20.97
2018-09-29T02:52:07.609Z,22.60
2018-09-29T02:52:38.746Z,19.27
2018-09-29T02:53:09.872Z,20.92
2018-09-29T02:53:40.987Z,20.40
2018-09-29T02:54:12.090Z,19.82
2018-09-29T02:54:43.249Z,19.05
2018-09-29T02:55:14.350Z,18.10
2018-09-29T02:55:45.464Z,21.40
2018-09-29T02:56:16.613Z,20.97
2018-09-29T02:56:47.709Z,19.37
2018-09-29T02:57:18.818Z,18.90
2018-09-29T02:57:49.937Z,21.52
2018-09-29T02:58:21.043Z,21.62
2018-09-29T02:58:52.194Z,18.92
2018-09-29T02:59:23.311Z,19.98
2018-09-29T02:59:54.453Z,22.73
2018-09-29T03:00:25.569Z,20.02
2018-09-29T03:00:56.714Z,21.75
2018-09-29T03:01:27.859Z,22.22
2018-09-29T03:01:58.969Z,23.98
2018-09-29T03:02:30.144Z,20.32
2018-09-29T03:03:01.285Z,21.07
2018-09-29T03:03:32.396Z,21.90
2018-09-29T03:04:03.557Z,20.10
2018-09-29T03:04:34.677Z,22.82
2018-09-29T03:05:05.791Z,21.20
2018-09-29T03:05:36.903Z,20.15
2018-09-29T03:06:08.035Z,20.97
2018-09-29T03:06:39.154Z,25.48
2018-09-29T03:07:10.329Z,21.27
2018-09-29T03:07:41.439Z,20.75
2018-09-29T03:08:12.548Z,24.70
2018-09-29T03:08:43.663Z,22.07
2018-09-29T03:09:14.770Z,22.35
2018-09-29T03:09:45.877Z,23.85
2018-09-29T03:10:16.988Z,21.33
2018-09-29T03:10:48.123Z,24.40
2018-09-29T03:11:19.278Z,25.95
2018-09-29T03:11:50.379Z,25.08
2018-09-29T03:12:21.499Z,25.80
2018-09-29T03:12:52.659Z,26.35
2018-09-29T03:13:23.866Z,22.02
2018-09-29T03:13:54.974Z,22.67
2018-09-29T03:14:26.101Z,24.92
2018-09-29T03:14:57.219Z,24.52
2018-09-29T03:15:28.321Z,25.72
2018-09-29T03:15:59.458Z,23.35
2018-09-29T03:16:30.557Z,26.12
2018-09-29T03:17:01.663Z,26.75
2018-09-29T03:17:32.786Z,25.27
2018-09-29T03:18:03.886Z,26.50
2018-09-29T03:18:35.048Z,24.10
2018-09-29T03:19:06.225Z,24.35
2018-09-29T03:19:37.295Z,24.27
2018-09-29T03:20:08.402Z,27.00
2018-09-29T03:20:39.507Z,24.90
2018-09-29T03:21:10.613Z,24.75
2018-09-29T03:21:41.724Z,23.92
2018-09-29T03:22:12.871Z,25.05
2018-09-29T03:22:43.997Z,24.23
2018-09-29T03:23:15.218Z,26.87
2018-09-29T03:23:46.348Z,25.82
2018-09-29T03:24:17.466Z,26.05
2018-09-29T03:24:48.597Z,24.75
2018-09-29T03:25:19.700Z,25.68
2018-09-29T03:25:50.842Z,25.20
2018-09-29T03:26:21.977Z,28.62
2018-09-29T03:26:53.097Z,25.62
2018-09-29T03:27:24.199Z,27.25
2018-09-29T03:27:55.306Z,26.27
2018-09-29T03:28:26.423Z,28.07
2018-09-29T03:28:57.587Z,27.98
2018-09-29T03:29:28.719Z,28.40
2018-09-29T03:29:59.827Z,25.77
2018-09-29T03:30:30.931Z,28.30
2018-09-29T03:31:02.072Z,25.92
2018-09-29T03:31:33.198Z,27.65
2018-09-29T03:32:04.350Z,27.22
2018-09-29T03:32:35.483Z,26.48
2018-09-29T03:33:06.596Z,25.80
2018-09-29T03:33:37.718Z,26.45
2018-09-29T03:34:08.850Z,28.65
2018-09-29T03:34:39.953Z,26.33
2018-09-29T03:35:11.092Z,27.90
2018-09-29T03:35:42.601Z,29.82
2018-09-29T03:36:13.710Z,26.82
2018-09-29T03:36:44.809Z,27.98
2018-09-29T03:37:15.927Z,27.10
2018-09-29T03:37:47.030Z,26.00
2018-09-29T03:38:18.144Z,23.92
2018-09-29T03:38:49.242Z,26.37
2018-09-29T03:39:20.334Z,27.93
2018-09-29T03:39:51.449Z,26.50
2018-09-29T03:40:22.551Z,24.82
2018-09-29T03:40:53.710Z,28.23
2018-09-29T03:41:24.829Z,24.00
2018-09-29T03:41:55.959Z,26.90
2018-09-29T03:42:27.059Z,27.65
2018-09-29T03:42:58.181Z,27.20
2018-09-29T03:43:29.291Z,26.55
2018-09-29T03:44:00.422Z,25.60
2018-09-29T03:44:31.561Z,24.02
2018-09-29T03:45:02.681Z,26.23
2018-09-29T03:45:33.778Z,24.32
2018-09-29T03:46:04.887Z,26.12
2018-09-29T03:46:36.011Z,24.70
2018-09-29T03:47:07.165Z,26.65
2018-09-29T03:47:38.263Z,24.82
2018-09-29T03:48:09.364Z,26.42
2018-09-29T03:48:40.462Z,25.05
2018-09-29T03:49:11.563Z,25.12
2018-09-29T03:49:42.679Z,27.60
2018-09-29T03:50:13.780Z,23.47
2018-09-29T03:50:44.905Z,26.52
2018-09-29T03:51:15.993Z,25.32
2018-09-29T03:51:47.096Z,27.37
2018-09-29T03:52:18.239Z,24.10
2018-09-29T03:52:49.361Z,26.00
2018-09-29T03:53:20.494Z,27.42
2018-09-29T03:53:51.610Z,25.40
2018-09-29T03:54:22.718Z,27.13
2018-09-29T03:54:53.876Z,23.92
2018-09-29T03:55:24.987Z,29.23
2018-09-29T03:55:56.130Z,28.95
2018-09-29T03:56:27.227Z,28.85
2018-09-29T03:56:58.343Z,31.57
2018-09-29T03:57:29.477Z,27.87
2018-09-29T03:58:00.583Z,26.75
2018-09-29T03:58:31.692Z,26.33
2018-09-29T03:59:02.785Z,26.12
2018-09-29T03:59:33.881Z,27.87
2018-09-29T04:00:05.016Z,29.70
2018-09-29T04:00:36.167Z,25.08
2018-09-29T04:01:07.284Z,31.23
2018-09-29T04:01:38.397Z,31.17
2018-09-29T04:02:09.493Z,26.55
2018-09-29T04:02:40.612Z,31.85
2018-09-29T04:03:11.754Z,30.40
2018-09-29T04:03:42.857Z,26.12
2018-09-29T04:04:13.959Z,30.57
2018-09-29T04:04:45.072Z,29.42
2018-09-29T04:05:16.188Z,31.35
2018-09-29T04:05:47.311Z,31.20
2018-09-29T04:06:18.413Z,28.38
2018-09-29T04:06:49.579Z,28.10
2018-09-29T04:07:20.696Z,30.68
2018-09-29T04:07:51.827Z,27.60
2018-09-29T04:08:22.977Z,31.95
2018-09-29T04:08:54.071Z,28.67
2018-09-29T04:09:25.203Z,26.45
2018-09-29T04:09:56.311Z,27.82
2018-09-29T04:10:27.464Z,33.38
2018-09-29T04:10:58.598Z,31.23
2018-09-29T04:11:29.718Z,29.07
2018-09-29T04:12:00.849Z,27.42
2018-09-29T04:12:31.951Z,26.97
2018-09-29T04:13:03.059Z,25.40
2018-09-29T04:13:34.160Z,26.48
2018-09-29T04:14:05.283Z,23.92
2018-09-29T04:14:36.399Z,29.35
2018-09-29T04:15:07.581Z,28.62
2018-09-29T04:15:38.693Z,28.05
2018-09-29T04:16:09.817Z,34.58
2018-09-29T04:16:40.948Z,29.60
2018-09-29T04:17:12.072Z,30.23
2018-09-29T04:17:43.171Z,28.95
2018-09-29T04:18:14.266Z,33.67
2018-09-29T04:18:45.377Z,28.80
2018-09-29T04:19:16.470Z,29.00
2018-09-29T04:19:47.604Z,32.73
2018-09-29T04:20:18.716Z,33.33
2018-09-29T04:20:49.813Z,30.43
2018-09-29T04:21:20.913Z,27.27
2018-09-29T04:21:52.010Z,29.90
2018-09-29T04:22:23.111Z,30.20
2018-09-29T04:22:54.249Z,31.62
2018-09-29T04:23:25.354Z,26.77
2018-09-29T04:23:56.459Z,28.45
2018-09-29T04:24:27.618Z,27.90
2018-09-29T04:24:58.739Z,30.68
2018-09-29T04:25:29.865Z,27.52
2018-09-29T04:26:00.965Z,29.25
2018-09-29T04:26:32.082Z,26.40
2018-09-29T04:27:03.183Z,27.02
2018-09-29T04:27:34.273Z,27.75
2018-09-29T04:28:05.392Z,29.98
2018-09-29T04:28:36.517Z,30.52
2018-09-29T04:29:07.643Z,30.72
2018-09-29T04:29:38.810Z,30.52
2018-09-29T04:30:09.949Z,31.80
2018-09-29T04:30:41.076Z,28.70
2018-09-29T04:31:12.174Z,27.80
2018-09-29T04:31:43.306Z,32.75
2018-09-29T04:32:14.424Z,29.63
2018-09-29T04:32:45.521Z,29.95
2018-09-29T04:33:16.643Z,27.55
2018-09-29T04:33:47.751Z,28.73
2018-09-29T04:34:18.859Z,30.62
2018-09-29T04:34:50.031Z,28.32
2018-09-29T04:35:21.174Z,31.70
2018-09-29T04:35:52.306Z,27.27
2018-09-29T04:36:23.456Z,30.90
2018-09-29T04:36:54.616Z,27.58
2018-09-29T04:37:25.787Z,30.27
2018-09-29T04:37:56.922Z,30.02
2018-09-29T04:38:28.073Z,30.20
2018-09-29T04:38:59.192Z,28.85
2018-09-29T04:39:30.302Z,25.85
2018-09-29T04:40:01.463Z,27.58
2018-09-29T04:40:32.620Z,26.15
2018-09-29T04:41:03.746Z,28.45
2018-09-29T04:41:34.869Z,26.62
2018-09-29T04:42:05.976Z,27.62
2018-09-29T04:42:37.134Z,27.00
2018-09-29T04:43:08.298Z,27.70
2018-09-29T04:43:39.404Z,23.18
2018-09-29T04:44:10.524Z,20.52
2018-09-29T04:44:41.686Z,22.62
2018-09-29T04:45:12.786Z,23.27
2018-09-29T04:45:43.918Z,21.37
2018-09-29T04:46:15.085Z,21.97
2018-09-29T04:46:46.189Z,23.57
2018-09-29T04:47:17.294Z,21.00
2018-09-29T04:47:48.412Z,19.48
2018-09-29T04:48:19.539Z,21.75
2018-09-29T04:48:50.651Z,20.50
2018-09-29T04:49:21.783Z,21.75
2018-09-29T04:49:52.910Z,23.73
2018-09-29T04:50:24.061Z,21.80
2018-09-29T04:50:55.179Z,21.48
2018-09-29T04:51:26.282Z,21.35
2018-09-29T04:51:57.428Z,19.00
2018-09-29T04:52:28.528Z,18.55
2018-09-29T04:52:59.641Z,18.60
2018-09-29T04:53:30.738Z,19.80
2018-09-29T04:54:01.851Z,18.30
2018-09-29T04:54:32.958Z,18.17
2018-09-29T04:55:04.072Z,19.82
2018-09-29T04:55:35.203Z,18.07
2018-09-29T04:56:06.298Z,18.32
2018-09-29T04:56:37.466Z,17.77
2018-09-29T04:57:08.625Z,18.57
2018-09-29T04:57:39.802Z,22.35
2018-09-29T04:58:10.945Z,20.00
2018-09-29T04:58:42.038Z,19.10
2018-09-29T04:59:13.129Z,20.10
2018-09-29T04:59:44.235Z,17.40
2018-09-29T05:00:15.362Z,19.60
2018-09-29T05:00:46.478Z,17.62
2018-09-29T05:01:17.582Z,17.92
2018-09-29T05:01:48.702Z,20.62
2018-09-29T05:02:19.806Z,20.30
2018-09-29T05:02:51.013Z,17.75
2018-09-29T05:03:22.110Z,18.27
2018-09-29T05:03:53.228Z,24.02
2018-09-29T05:04:24.355Z,18.35
2018-09-29T05:04:55.491Z,19.55
2018-09-29T05:05:26.604Z,18.95
2018-09-29T05:05:57.722Z,18.17
2018-09-29T05:06:28.862Z,18.70
2018-09-29T05:06:59.992Z,19.60
2018-09-29T05:07:31.102Z,18.32
2018-09-29T05:08:02.257Z,20.65
2018-09-29T05:08:33.394Z,20.82
2018-09-29T05:09:04.507Z,20.52
2018-09-29T05:09:35.612Z,20.85
2018-09-29T05:10:06.767Z,19.12
2018-09-29T05:10:37.886Z,21.05
2018-09-29T05:11:09.019Z,19.20
2018-09-29T05:11:40.171Z,21.87
2018-09-29T05:12:11.282Z,18.60
2018-09-29T05:12:42.421Z,18.07
2018-09-29T05:13:13.526Z,19.40
2018-09-29T05:13:44.632Z,20.30
2018-09-29T05:14:15.747Z,22.82
2018-09-29T05:14:46.847Z,20.37
2018-09-29T05:15:17.970Z,19.55
2018-09-29T05:15:49.127Z,19.85
2018-09-29T05:16:20.284Z,19.50
2018-09-29T05:16:51.450Z,21.75
2018-09-29T05:17:22.571Z,20.00
2018-09-29T05:17:53.690Z,18.65
2018-09-29T05:18:24.809Z,19.90
2018-09-29T05:18:55.969Z,20.75
2018-09-29T05:19:27.077Z,19.67
2018-09-29T05:19:58.179Z,18.30
2018-09-29T05:20:29.321Z,19.20
2018-09-29T05:21:00.444Z,27.02
2018-09-29T05:21:31.549Z,23.07
2018-09-29T05:22:02.658Z,19.23
2018-09-29T05:22:33.828Z,19.12
2018-09-29T05:23:04.982Z,20.82
2018-09-29T05:23:36.062Z,21.50
2018-09-29T05:24:07.167Z,22.15
2018-09-29T05:24:38.281Z,20.02
2018-09-29T05:25:09.379Z,20.00
2018-09-29T05:25:40.516Z,19.17
2018-09-29T05:26:11.613Z,23.60
2018-09-29T05:26:42.758Z,20.60
2018-09-29T05:27:13.898Z,18.95
2018-09-29T05:27:45.061Z,23.05
2018-09-29T05:28:16.191Z,19.67
2018-09-29T05:28:47.302Z,21.70
2018-09-29T05:29:18.427Z,20.08
2018-09-29T05:29:49.536Z,20.80
2018-09-29T05:30:20.657Z,20.15
2018-09-29T05:30:51.903Z,20.62
2018-09-29T05:31:22.945Z,22.13
2018-09-29T05:31:54.058Z,20.10
2018-09-29T05:32:25.197Z,20.17
2018-09-29T05:32:56.361Z,19.27
2018-09-29T05:33:27.491Z,19.80
2018-09-29T05:33:58.608Z,22.02
2018-09-29T05:34:29.716Z,20.85
2018-09-29T05:35:00.814Z,23.22
2018-09-29T05:35:31.931Z,21.77
2018-09-29T05:36:03.048Z,20.12
2018-09-29T05:36:34.156Z,20.45
2018-09-29T05:37:05.278Z,21.37
2018-09-29T05:37:36.437Z,20.48
2018-09-29T05:38:07.597Z,20.32
2018-09-29T05:38:38.751Z,20.82
2018-09-29T05:39:09.858Z,20.50
2018-09-29T05:39:40.975Z,20.68
2018-09-29T05:40:12.111Z,20.23
2018-09-29T05:40:43.214Z,18.07
2018-09-29T05:41:14.309Z,21.52
2018-09-29T05:41:45.434Z,18.98
2018-09-29T05:42:16.536Z,20.15
2018-09-29T05:42:47.721Z,18.48
2018-09-29T05:43:18.822Z,18.82
2018-09-29T05:43:49.957Z,20.17
2018-09-29T05:44:21.070Z,25.12
2018-09-29T05:44:52.204Z,18.70
2018-09-29T05:45:23.374Z,20.10
2018-09-29T05:45:54.489Z,19.70
2018-09-29T05:46:25.631Z,21.33
2018-09-29T05:46:56.746Z,19.07
2018-09-29T05:47:27.854Z,20.70
2018-09-29T05:47:59.041Z,22.00
2018-09-29T05:48:30.202Z,17.80
2018-09-29T05:49:01.310Z,23.05
2018-09-29T05:49:32.407Z,18.82
2018-09-29T05:50:03.541Z,20.00
2018-09-29T05:50:34.706Z,17.20
2018-09-29T05:51:05.827Z,22.85
2018-09-29T05:51:36.922Z,18.42
2018-09-29T05:52:08.066Z,19.60
2018-09-29T05:52:39.197Z,20.82
2018-09-29T05:53:10.335Z,20.57
2018-09-29T05:53:41.481Z,20.85
2018-09-29T05:54:12.610Z,16.55
2018-09-29T05:54:43.731Z,23.90
2018-09-29T05:55:14.834Z,18.57
2018-09-29T05:55:45.938Z,20.60
2018-09-29T05:56:17.043Z,18.42
2018-09-29T05:56:48.175Z,18.95
2018-09-29T05:57:19.292Z,20.55
2018-09-29T05:57:50.398Z,21.70
2018-09-29T05:58:21.654Z,19.10
2018-09-29T05:58:52.811Z,20.57
2018-09-29T05:59:23.949Z,19.17
2018-09-29T05:59:55.084Z,21.07
2018-09-29T06:00:26.238Z,20.72
2018-09-29T06:00:57.370Z,22.07
2018-09-29T06:01:28.479Z,18.48
2018-09-29T06:01:59.591Z,19.50
2018-09-29T06:02:30.733Z,20.17
2018-09-29T06:03:01.844Z,17.48
2018-09-29T06:03:32.951Z,20.52
2018-09-29T06:04:04.091Z,17.67
2018-09-29T06:04:35.222Z,21.15
2018-09-29T06:05:06.336Z,18.70
2018-09-29T06:05:37.512Z,19.10
2018-09-29T06:06:08.563Z,18.70
2018-09-29T06:06:39.676Z,20.00
2018-09-29T06:07:10.843Z,19.87
2018-09-29T06:07:41.942Z,17.60
2018-09-29T06:08:13.060Z,17.57
2018-09-29T06:08:44.214Z,18.40
2018-09-29T06:09:15.324Z,19.07
2018-09-29T06:09:46.439Z,19.67
2018-09-29T06:10:17.545Z,19.15
2018-09-29T06:10:48.657Z,21.00
2018-09-29T06:11:19.819Z,20.40
2018-09-29T06:11:50.909Z,20.25
2018-09-29T06:12:22.039Z,20.05
2018-09-29T06:12:53.151Z,17.52
2018-09-29T06:13:24.281Z,18.55
2018-09-29T06:13:55.421Z,16.48
2018-09-29T06:14:26.572Z,15.83
2018-09-29T06:14:57.685Z,19.50
2018-09-29T06:15:28.804Z,19.75
2018-09-29T06:15:59.919Z,18.55
2018-09-29T06:16:31.062Z,19.50
2018-09-29T06:17:02.188Z,19.17
2018-09-29T06:17:33.317Z,18.77
2018-09-29T06:18:04.425Z,20.45
2018-09-29T06:18:35.590Z,23.65
2018-09-29T06:19:06.693Z,19.85
2018-09-29T06:19:37.827Z,17.57
2018-09-29T06:20:09.005Z,17.17
2018-09-29T06:20:40.130Z,17.87
2018-09-29T06:21:11.254Z,18.70
2018-09-29T06:21:42.362Z,16.97
2018-09-29T06:22:13.463Z,17.70
2018-09-29T06:22:44.575Z,17.10
2018-09-29T06:23:15.698Z,23.05
2018-09-29T06:23:46.859Z,17.67
2018-09-29T06:24:17.984Z,19.10
2018-09-29T06:24:49.141Z,18.25
2018-09-29T06:25:20.258Z,19.25
2018-09-29T06:25:51.402Z,20.12
2018-09-29T06:26:22.560Z,16.07
2018-09-29T06:26:53.649Z,18.67
2018-09-29T06:27:24.766Z,16.65
2018-09-29T06:27:55.941Z,18.05
2018-09-29T06:28:27.010Z,20.95
2018-09-29T06:28:58.110Z,18.50
2018-09-29T06:29:29.219Z,18.40
2018-09-29T06:30:00.323Z,20.57
2018-09-29T06:30:31.427Z,19.17
2018-09-29T06:31:02.633Z,20.30
2018-09-29T06:31:33.729Z,18.15
2018-09-29T06:32:04.835Z,17.30
2018-09-29T06:32:35.943Z,20.17
2018-09-29T06:33:07.070Z,17.57
2018-09-29T06:33:38.207Z,18.30
2018-09-29T06:34:09.316Z,17.00
2018-09-29T06:34:40.435Z,18.07
2018-09-29T06:35:11.592Z,16.05
2018-09-29T06:35:42.693Z,18.80
2018-09-29T06:36:13.869Z,19.17
2018-09-29T06:36:45.000Z,16.42
2018-09-29T06:37:16.119Z,15.13
2018-09-29T06:37:47.247Z,16.40
2018-09-29T06:38:18.432Z,18.48
2018-09-29T06:38:49.521Z,16.65
2018-09-29T06:39:20.644Z,19.73
2018-09-29T06:39:51.759Z,16.37
2018-09-29T06:40:22.880Z,20.27
2018-09-29T06:40:54.072Z,15.43